Terminal Aerodrome Forecast
Issued by NWS Mt. Holly, NJ

Home | Current Version | Previous Version | Text Only | Print | Product List | Glossary On
Versions: 1 2 3 4 5 6 7 8 9 10 11 12 13 14 15 16 17 18
000
FTUS41 KPHI 261123
TAFTTN
TAF
KTTN 261123Z 2612/2712 06005KT P6SM SCT025 OVC035
      TEMPO 2612/2614 BKN025
     FM261400 09005KT P6SM BKN025
     FM261700 16006KT P6SM SCT030 BKN050
     FM270400 20003KT P6SM FEW020 SCT050=

USA.gov is the U.S. government's official web portal to all federal, state and local government web resources and services.